createdAt,value
2017-07-08T00:02:10.829Z,1009.2
2017-07-08T00:12:26.179Z,1009.3
2017-07-08T00:22:40.367Z,1009.2
2017-07-08T00:32:54.784Z,1009.1
2017-07-08T00:43:09.868Z,1009.2
2017-07-08T00:53:24.450Z,1009.2
2017-07-08T01:03:40.019Z,1009.3
2017-07-08T01:13:54.763Z,1009.1
2017-07-08T01:24:09.358Z,1009.1
2017-07-08T01:34:24.274Z,1009.1
2017-07-08T01:44:39.534Z,1009
2017-07-08T01:54:55.109Z,1009
2017-07-08T02:05:09.973Z,1009.2
2017-07-08T02:15:25.406Z,1009
2017-07-08T02:25:39.545Z,1009
2017-07-08T02:35:54.032Z,1009.1
2017-07-08T02:46:08.546Z,1009.1
2017-07-08T02:56:23.221Z,1009.1
2017-07-08T03:06:37.626Z,1008.9
2017-07-08T03:16:52.884Z,1009
2017-07-08T03:27:07.040Z,1009.1
2017-07-08T03:37:22.559Z,1009.2
2017-07-08T03:47:36.589Z,1009.3
2017-07-08T03:57:51.321Z,1009.3
2017-07-08T04:08:06.323Z,1009.3
2017-07-08T04:18:20.542Z,1009.4
2017-07-08T04:28:34.858Z,1009.6
2017-07-08T04:38:50.104Z,1009.7
2017-07-08T04:49:04.952Z,1009.8
2017-07-08T04:59:19.705Z,1009.6
2017-07-08T05:09:34.149Z,1009.7
2017-07-08T05:19:49.094Z,1009.7
2017-07-08T05:30:04.616Z,1009.5
2017-07-08T05:40:18.817Z,1009.5
2017-07-08T05:50:33.751Z,1009.5
2017-07-08T06:00:49.326Z,1009.5
2017-07-08T06:11:04.943Z,1009.4
2017-07-08T06:21:20.214Z,1009.5
2017-07-08T06:31:35.576Z,1009.6
2017-07-08T06:41:50.408Z,1009.8
2017-07-08T06:52:04.339Z,1009.9
2017-07-08T07:02:19.942Z,1010.1
2017-07-08T07:12:34.831Z,1010.3
2017-07-08T07:22:50.264Z,1010.3
2017-07-08T07:33:05.450Z,1010.4
2017-07-08T07:43:20.434Z,1010.3
2017-07-08T07:53:35.214Z,1010.4
2017-07-08T08:03:49.670Z,1010.4
2017-07-08T08:14:04.254Z,1010.4
2017-07-08T08:24:19.835Z,1010.3
2017-07-08T08:34:34.522Z,1010.7
2017-07-08T08:44:49.869Z,1010.6
2017-07-08T08:55:04.110Z,1010.7
2017-07-08T09:05:18.797Z,1010.8
2017-07-08T09:15:33.453Z,1010.9
2017-07-08T09:25:48.302Z,1010.9
2017-07-08T09:36:03.875Z,1010.9
2017-07-08T09:46:18.418Z,1011
2017-07-08T09:56:32.694Z,1010.7
2017-07-08T10:06:48.470Z,1011.1
2017-07-08T10:17:04.112Z,1011.1
2017-07-08T10:27:18.960Z,1011.1
2017-07-08T10:37:33.693Z,1011
2017-07-08T10:47:48.763Z,1011.4
2017-07-08T10:58:04.122Z,1010.8
2017-07-08T11:08:19.313Z,1010.8
2017-07-08T11:18:34.106Z,1010.7
2017-07-08T11:28:48.754Z,1010.7
2017-07-08T11:39:03.101Z,1010.6
2017-07-08T11:49:17.838Z,1011.2
2017-07-08T11:59:32.250Z,1011
2017-07-08T12:09:46.279Z,1010.9
2017-07-08T12:20:01.082Z,1011
2017-07-08T12:30:16.940Z,1011
2017-07-08T12:40:31.246Z,1010.9
2017-07-08T12:50:45.754Z,1010.5
2017-07-08T13:01:01.125Z,1010.7
2017-07-08T13:11:15.430Z,1010.8
2017-07-08T13:21:31.065Z,1010.5
2017-07-08T13:31:45.400Z,1010
2017-07-08T13:42:00.264Z,1010.5
2017-07-08T13:52:15.073Z,1010.6
2017-07-08T14:02:29.201Z,1010.4
2017-07-08T14:12:43.430Z,1010.2
2017-07-08T14:22:57.715Z,1010.5
2017-07-08T14:33:13.689Z,1010.3
2017-07-08T14:43:29.150Z,1009.8
2017-07-08T14:53:44.650Z,1009.7
2017-07-08T15:03:58.611Z,1009.3
2017-07-08T15:14:13.376Z,1009.2
2017-07-08T15:24:29.230Z,1009.8
2017-07-08T15:34:43.919Z,1009.6
2017-07-08T15:44:59.279Z,1009.3
2017-07-08T15:55:14.632Z,1009.1
2017-07-08T16:05:28.766Z,1008.9
2017-07-08T16:15:43.747Z,1009.1
2017-07-08T16:25:59.549Z,1009
2017-07-08T16:36:15.199Z,1009
2017-07-08T16:46:29.492Z,1008.9
2017-07-08T16:56:44.050Z,1008.6
2017-07-08T17:06:58.501Z,1008.8
2017-07-08T17:17:14.261Z,1008.8
2017-07-08T17:27:29.163Z,1008.8
2017-07-08T17:37:44.536Z,1008.9
2017-07-08T17:47:59.420Z,1008.9
2017-07-08T17:58:14.402Z,1008.9
2017-07-08T18:08:29.516Z,1009
2017-07-08T18:18:43.613Z,1009
2017-07-08T18:28:58.856Z,1008.9
2017-07-08T18:39:13.171Z,1008.8
2017-07-08T18:49:28.866Z,1008.8
2017-07-08T18:59:43.744Z,1008.8
2017-07-08T19:09:59.326Z,1008.9
2017-07-08T19:20:13.790Z,1008.9
2017-07-08T19:30:27.742Z,1009
2017-07-08T19:40:43.180Z,1009
2017-07-08T19:50:57.738Z,1009.1
2017-07-08T20:01:12.624Z,1009.1
2017-07-08T20:11:27.881Z,1009.1
2017-07-08T20:21:42.970Z,1009.2
2017-07-08T20:31:57.095Z,1009.3
2017-07-08T20:42:11.698Z,1009.3
2017-07-08T20:52:26.777Z,1009.5
2017-07-08T21:02:40.605Z,1009.6
2017-07-08T21:12:56.127Z,1009.6
2017-07-08T21:23:09.991Z,1009.6
2017-07-08T21:33:24.099Z,1009.5
2017-07-08T21:43:39.194Z,1009.6
2017-07-08T21:53:53.155Z,1009.6
2017-07-08T22:04:07.793Z,1009.6
2017-07-08T22:14:21.864Z,1009.5
2017-07-08T22:24:36.475Z,1009.6
2017-07-08T22:34:50.796Z,1009.6
2017-07-08T22:45:04.829Z,1009.8
2017-07-08T22:55:19.288Z,1009.5
2017-07-08T23:05:33.155Z,1009.5
2017-07-08T23:15:47.760Z,1009.6
2017-07-08T23:26:01.941Z,1009.5
2017-07-08T23:36:16.837Z,1009.5
2017-07-08T23:46:31.625Z,1009.4
2017-07-08T23:56:45.435Z,1009.3
